Time;durP1;ratioP1;P1;durP2;ratioP2;P2;SDS_P1;SDS_P2;PMS_P1;PMS_P2;Temp;Humidity;BMP_temperature;BMP_pressure;BME280_temperature;BME280_humidity;BME280_pressure;Samples;Min_cycle;Max_cycle;Signal;HPM_P1;HPM_P2
2022/09/06 00:00:25;;;;;;;8.32;7.25;;;20.10;99.90;;;;;;5000189;28;90466;-32
2022/09/06 00:02:51;;;;;;;12.73;7.47;;;20.10;99.90;;;;;;5001702;28;89903;-32
2022/09/06 00:05:16;;;;;;;7.07;6.57;;;20.10;99.90;;;;;;4999723;28;88372;-31
2022/09/06 00:07:42;;;;;;;11.65;7.70;;;20.10;99.90;;;;;;5001353;28;90290;-31
2022/09/06 00:10:08;;;;;;;7.07;6.47;;;20.00;99.90;;;;;;5000075;28;89731;-32
2022/09/06 00:12:34;;;;;;;8.02;6.65;;;20.00;99.90;;;;;;5000599;28;90036;-35
2022/09/06 00:15:00;;;;;;;7.50;6.57;;;20.00;99.90;;;;;;5000733;28;89165;-30
2022/09/06 00:17:25;;;;;;;7.35;6.53;;;20.00;99.90;;;;;;4999939;28;90410;-32
2022/09/06 00:19:51;;;;;;;7.38;6.78;;;20.00;99.90;;;;;;5000692;28;89836;-36
2022/09/06 00:22:16;;;;;;;8.45;7.47;;;19.90;99.90;;;;;;5000317;28;89693;-33
2022/09/06 00:24:42;;;;;;;7.13;6.53;;;19.90;99.90;;;;;;5000214;28;89809;-34
2022/09/06 00:27:08;;;;;;;8.43;7.72;;;19.80;99.90;;;;;;5000401;28;91320;-34
2022/09/06 00:29:34;;;;;;;8.60;7.78;;;19.80;99.90;;;;;;5000451;28;90010;-32
2022/09/06 00:32:00;;;;;;;8.25;7.45;;;19.80;99.90;;;;;;5000689;28;88218;-32
2022/09/06 00:34:26;;;;;;;8.13;6.85;;;19.80;99.90;;;;;;5038166;22;88902;-31
2022/09/06 00:36:52;;;;;;;9.07;7.38;;;19.70;99.90;;;;;;5020427;28;90751;-31
2022/09/06 00:39:17;;;;;;;11.52;7.72;;;19.70;99.90;;;;;;5020422;28;89348;-32
2022/09/06 00:41:43;;;;;;;9.93;7.20;;;19.60;99.90;;;;;;5020327;28;89505;-34
2022/09/06 00:44:08;;;;;;;8.80;7.95;;;19.60;99.90;;;;;;5021133;28;89732;-31
2022/09/06 00:46:36;;;;;;;8.38;7.65;;;19.60;99.90;;;;;;5019573;28;89307;-31
2022/09/06 00:49:08;;;;;;;8.73;7.93;;;19.50;99.90;;;;;;5020800;27;89448;-36
2022/09/06 00:51:35;;;;;;;7.97;7.22;;;19.60;99.90;;;;;;5019901;28;89425;-32
2022/09/06 00:54:05;;;;;;;7.70;7.00;;;19.50;99.90;;;;;;5020798;27;90195;-32
2022/09/06 00:56:33;;;;;;;9.02;8.13;;;19.50;99.90;;;;;;5019907;27;90372;-35
2022/09/06 00:59:00;;;;;;;7.45;6.85;;;19.50;99.90;;;;;;5020566;28;90064;-32
2022/09/06 01:01:26;;;;;;;7.57;6.97;;;19.50;99.90;;;;;;5019828;27;89521;-30
2022/09/06 01:03:52;;;;;;;8.23;7.43;;;19.40;99.90;;;;;;5020329;27;89170;-32
2022/09/06 01:06:17;;;;;;;8.45;7.57;;;19.40;99.90;;;;;;5019639;28;90346;-35
2022/09/06 01:09:09;;;;;;;8.40;7.65;;;19.30;99.90;;;;;;5019948;28;89582;-36
2022/09/06 01:11:44;;;;;;;8.27;7.57;;;19.30;99.90;;;;;;5019656;27;89856;-34
2022/09/06 01:14:28;;;;;;;8.77;7.97;;;19.20;99.90;;;;;;5019287;28;90197;-30
2022/09/06 01:17:03;;;;;;;9.20;7.60;;;19.20;99.90;;;;;;5019056;27;91144;-31
2022/09/06 01:19:35;;;;;;;8.23;7.43;;;19.10;99.90;;;;;;5019462;28;88791;-32
2022/09/06 01:22:12;;;;;;;8.45;7.53;;;19.10;99.90;;;;;;5019926;28;90584;-32
2022/09/06 01:24:52;;;;;;;8.88;8.05;;;19.00;99.90;;;;;;5020036;28;88576;-32
2022/09/06 01:27:52;;;;;;;8.57;7.88;;;19.00;99.90;;;;;;5006057;28;91686;-34
2022/09/06 01:30:19;;;;;;;7.10;6.47;;;19.00;99.90;;;;;;5019385;27;90102;-32
2022/09/06 01:33:08;;;;;;;8.52;7.72;;;18.90;99.90;;;;;;5019713;28;90959;-31
2022/09/06 01:35:44;;;;;;;8.55;7.43;;;18.90;99.90;;;;;;5019259;28;89096;-32
2022/09/06 01:38:11;;;;;;;9.90;8.18;;;18.90;99.90;;;;;;5019529;27;90090;-35
2022/09/06 01:40:37;;;;;;;9.93;8.00;;;18.90;99.90;;;;;;5018960;28;90708;-34
2022/09/06 01:43:07;;;;;;;13.77;7.53;;;18.90;99.90;;;;;;5019719;28;91428;-32
2022/09/06 01:45:51;;;;;;;8.20;7.43;;;18.90;99.90;;;;;;5019319;27;88613;-31
2022/09/06 01:48:43;;;;;;;7.90;7.25;;;18.80;99.90;;;;;;5017177;28;90301;-34
2022/09/06 01:51:31;;;;;;;9.38;8.63;;;18.80;99.90;;;;;;5019534;27;89759;-32
2022/09/06 01:54:23;;;;;;;10.07;9.07;;;18.80;99.90;;;;;;5019516;28;89659;-31
2022/09/06 01:57:15;;;;;;;9.32;8.48;;;18.80;99.90;;;;;;4987799;27;90675;-31
2022/09/06 01:59:52;;;;;;;9.55;7.50;;;18.80;99.90;;;;;;5019305;28;92239;-33
2022/09/06 02:02:29;;;;;;;6.68;6.07;;;18.80;99.90;;;;;;5019071;27;88442;-35
2022/09/06 02:05:32;;;;;;;8.73;7.93;;;18.80;99.90;;;;;;5019145;28;89437;-33
2022/09/06 02:08:08;;;;;;;11.45;9.57;;;18.70;99.90;;;;;;5008747;27;89678;-31
2022/09/06 02:10:46;;;;;;;10.63;8.15;;;18.70;99.90;;;;;;5018999;27;90362;-32
2022/09/06 02:13:14;;;;;;;8.30;7.43;;;18.70;99.90;;;;;;5018765;27;90010;-37
2022/09/06 02:15:50;;;;;;;9.57;8.43;;;18.70;99.90;;;;;;5019504;27;89624;-33
2022/09/06 02:18:27;;;;;;;8.55;7.78;;;18.70;99.90;;;;;;5019822;27;88395;-32
2022/09/06 02:20:56;;;;;;;8.85;8.05;;;18.70;99.90;;;;;;5018733;27;90419;-32
2022/09/06 02:23:26;;;;;;;8.98;8.10;;;18.70;99.90;;;;;;5018398;27;88906;-31
2022/09/06 02:26:00;;;;;;;8.73;7.88;;;18.70;99.90;;;;;;5018613;27;90069;-33
2022/09/06 02:28:26;;;;;;;9.57;8.63;;;18.70;99.90;;;;;;5020202;27;88858;-30
2022/09/06 02:30:59;;;;;;;9.95;8.93;;;18.70;99.90;;;;;;5022215;28;89364;-32
2022/09/06 02:33:29;;;;;;;8.05;7.30;;;18.70;99.90;;;;;;5021852;27;90766;-33
2022/09/06 02:35:55;;;;;;;9.65;7.90;;;18.70;99.90;;;;;;5021922;27;88949;-31
2022/09/06 02:38:23;;;;;;;9.05;8.25;;;18.70;99.90;;;;;;5022416;27;88556;-31
2022/09/06 02:40:52;;;;;;;12.32;8.10;;;18.70;99.90;;;;;;5022019;27;89512;-35
2022/09/06 02:43:18;;;;;;;9.13;8.23;;;18.70;99.90;;;;;;5021760;27;90162;-31
2022/09/06 02:45:43;;;;;;;9.00;8.00;;;18.70;99.90;;;;;;5022126;28;88966;-32
2022/09/06 02:48:09;;;;;;;10.68;8.65;;;18.70;99.90;;;;;;5022486;28;89760;-32
2022/09/06 02:50:35;;;;;;;10.23;9.40;;;18.70;99.90;;;;;;5022440;28;90408;-36
2022/09/06 02:53:10;;;;;;;10.38;8.55;;;18.70;99.90;;;;;;5022414;28;89716;-31
2022/09/06 02:55:37;;;;;;;8.90;8.02;;;18.70;99.90;;;;;;5021348;27;90035;-32
2022/09/06 02:58:02;;;;;;;11.73;8.93;;;18.70;99.90;;;;;;5022130;27;90260;-34
2022/09/06 03:00:29;;;;;;;9.80;8.90;;;18.70;99.90;;;;;;5019923;28;90156;-34
2022/09/06 03:02:55;;;;;;;9.63;8.82;;;18.70;99.90;;;;;;5021507;27;89946;-36
2022/09/06 03:05:22;;;;;;;10.52;9.52;;;18.70;99.90;;;;;;5021702;28;91202;-35
2022/09/06 03:07:48;;;;;;;10.05;9.15;;;18.70;99.90;;;;;;5021289;27;89067;-31
2022/09/06 03:10:14;;;;;;;9.43;8.63;;;18.70;99.90;;;;;;5021738;28;90442;-31
2022/09/06 03:12:42;;;;;;;9.55;8.65;;;18.70;99.90;;;;;;5022089;28;89627;-32
2022/09/06 03:15:09;;;;;;;9.57;8.68;;;18.60;99.90;;;;;;5022308;27;90936;-32
2022/09/06 03:17:34;;;;;;;9.40;8.57;;;18.60;99.90;;;;;;5020889;27;89349;-33
2022/09/06 03:20:00;;;;;;;10.02;9.00;;;18.60;99.90;;;;;;5021502;28;89909;-34
2022/09/06 03:22:25;;;;;;;9.52;8.63;;;18.60;99.90;;;;;;5020827;28;90949;-33
2022/09/06 03:24:51;;;;;;;10.43;9.50;;;18.50;99.90;;;;;;5021294;28;90437;-33
2022/09/06 03:27:16;;;;;;;11.57;8.93;;;18.50;99.90;;;;;;5021099;28;89681;-32
2022/09/06 03:29:42;;;;;;;9.80;8.85;;;18.50;99.90;;;;;;5021494;28;89914;-33
2022/09/06 03:32:08;;;;;;;11.23;10.10;;;18.50;99.90;;;;;;5020751;28;90166;-32
2022/09/06 03:34:33;;;;;;;13.98;9.02;;;18.50;99.90;;;;;;5019700;28;89467;-34
2022/09/06 03:36:59;;;;;;;10.00;9.10;;;18.50;99.90;;;;;;5021510;28;89177;-33
2022/09/06 03:39:24;;;;;;;9.60;8.70;;;18.40;99.90;;;;;;5020966;28;90468;-31
2022/09/06 03:41:50;;;;;;;10.73;9.63;;;18.40;99.90;;;;;;5020557;28;89397;-34
2022/09/06 03:44:15;;;;;;;10.20;9.30;;;18.40;99.90;;;;;;5020271;28;89605;-32
2022/09/06 03:46:41;;;;;;;12.68;10.65;;;18.40;99.90;;;;;;5020964;28;90273;-36
2022/09/06 03:49:09;;;;;;;12.35;9.80;;;18.40;99.90;;;;;;5020727;28;90376;-33
2022/09/06 03:51:35;;;;;;;10.52;9.52;;;18.30;99.90;;;;;;5021191;27;89742;-33
2022/09/06 03:54:00;;;;;;;10.25;9.35;;;18.30;99.90;;;;;;5020945;27;88957;-31
2022/09/06 03:56:26;;;;;;;10.63;9.63;;;18.30;99.90;;;;;;5020893;28;88952;-32
2022/09/06 03:58:52;;;;;;;9.77;8.98;;;18.40;99.90;;;;;;5020700;28;90380;-34
2022/09/06 04:01:17;;;;;;;10.68;9.70;;;18.40;99.90;;;;;;5020953;28;90037;-30
2022/09/06 04:03:43;;;;;;;10.63;9.52;;;18.40;99.90;;;;;;5020850;28;89954;-34
2022/09/06 04:06:09;;;;;;;10.95;9.88;;;18.40;99.90;;;;;;5021555;28;88937;-31
2022/09/06 04:08:36;;;;;;;10.80;9.60;;;18.40;99.90;;;;;;5020162;27;90111;-35
2022/09/06 04:11:03;;;;;;;11.75;10.75;;;18.40;99.90;;;;;;5018282;28;90258;-34
2022/09/06 04:13:29;;;;;;;11.27;10.27;;;18.40;99.90;;;;;;5020113;28;90491;-32
2022/09/06 04:15:55;;;;;;;10.30;9.45;;;18.40;99.90;;;;;;5020307;28;89654;-34
2022/09/06 04:18:20;;;;;;;10.32;9.35;;;18.40;99.90;;;;;;5020571;28;90577;-36
2022/09/06 04:20:51;;;;;;;12.73;10.18;;;18.40;99.90;;;;;;5021187;28;88233;-32
2022/09/06 04:23:18;;;;;;;12.65;10.32;;;18.30;99.90;;;;;;5020167;27;89780;-31
2022/09/06 04:25:48;;;;;;;11.05;9.95;;;18.30;99.90;;;;;;5020222;27;87657;-32
2022/09/06 04:28:14;;;;;;;11.73;10.55;;;18.30;99.90;;;;;;5020941;27;90318;-29
2022/09/06 04:30:39;;;;;;;10.68;9.57;;;18.40;99.90;;;;;;5019497;28;90998;-31
2022/09/06 04:33:05;;;;;;;10.95;9.75;;;18.30;99.90;;;;;;5020548;28;89482;-34
2022/09/06 04:35:31;;;;;;;12.63;11.32;;;18.40;99.90;;;;;;5019190;28;89589;-33
2022/09/06 04:38:00;;;;;;;10.63;9.57;;;18.40;99.90;;;;;;5019696;28;90555;-35
2022/09/06 04:40:26;;;;;;;9.88;8.98;;;18.30;99.90;;;;;;5020651;28;90946;-30
2022/09/06 04:42:51;;;;;;;11.90;9.95;;;18.30;99.90;;;;;;5018782;28;90198;-31
2022/09/06 04:45:17;;;;;;;13.05;10.68;;;18.30;99.90;;;;;;5020477;28;89415;-36
2022/09/06 04:47:42;;;;;;;22.52;11.40;;;18.30;99.90;;;;;;5019253;28;90561;-32
2022/09/06 04:50:08;;;;;;;12.18;10.15;;;18.30;99.90;;;;;;5019392;28;89998;-36
2022/09/06 04:52:34;;;;;;;11.68;9.63;;;18.30;99.90;;;;;;5018285;27;89844;-31
2022/09/06 04:54:59;;;;;;;12.30;9.80;;;18.30;99.90;;;;;;5019730;28;87898;-31
2022/09/06 04:57:25;;;;;;;12.43;9.23;;;18.30;99.90;;;;;;5019595;28;90238;-35
2022/09/06 04:59:50;;;;;;;10.55;9.45;;;18.20;99.90;;;;;;5018506;28;90884;-35
2022/09/06 05:02:16;;;;;;;13.38;10.27;;;18.20;99.90;;;;;;5020052;28;90643;-34
2022/09/06 05:04:41;;;;;;;10.90;9.77;;;18.20;99.90;;;;;;5019833;28;89023;-32
2022/09/06 05:07:08;;;;;;;11.27;9.65;;;18.20;99.90;;;;;;5019459;28;90241;-35
2022/09/06 05:09:34;;;;;;;13.35;10.52;;;18.10;99.90;;;;;;5019463;28;89889;-35
2022/09/06 05:11:59;;;;;;;13.00;11.70;;;18.10;99.90;;;;;;5018539;28;88732;-32
2022/09/06 05:14:26;;;;;;;10.63;9.70;;;18.10;99.90;;;;;;5019547;28;90017;-29
2022/09/06 05:16:53;;;;;;;13.30;10.70;;;18.10;99.90;;;;;;5020520;27;90980;-30
2022/09/06 05:19:19;;;;;;;10.50;9.60;;;18.10;99.90;;;;;;5019020;27;90662;-34
2022/09/06 05:21:44;;;;;;;10.35;9.35;;;18.10;99.90;;;;;;5019836;27;89643;-31
2022/09/06 05:24:11;;;;;;;11.73;10.77;;;18.10;99.90;;;;;;5019399;27;89934;-31
2022/09/06 05:26:36;;;;;;;11.70;10.60;;;18.10;99.90;;;;;;5019061;27;90325;-33
2022/09/06 05:29:02;;;;;;;16.58;12.32;;;18.00;99.90;;;;;;5019549;28;90139;-31
2022/09/06 05:31:32;;;;;;;12.52;11.32;;;18.00;99.90;;;;;;5017359;28;89382;-31
2022/09/06 05:33:59;;;;;;;12.55;11.25;;;18.00;99.90;;;;;;5018454;27;89233;-32
2022/09/06 05:36:26;;;;;;;13.15;11.57;;;17.90;99.90;;;;;;5016989;28;90309;-31
2022/09/06 05:38:53;;;;;;;13.25;12.07;;;17.90;99.90;;;;;;5019022;28;89152;-32
2022/09/06 05:41:20;;;;;;;12.10;11.10;;;17.90;99.90;;;;;;5018566;27;90547;-33
2022/09/06 05:43:46;;;;;;;11.88;10.85;;;17.80;99.90;;;;;;5018322;27;89648;-30
2022/09/06 05:46:12;;;;;;;14.55;13.30;;;17.80;99.90;;;;;;5018664;27;90251;-34
2022/09/06 05:48:37;;;;;;;14.02;12.50;;;17.80;99.90;;;;;;5018103;27;89891;-34
2022/09/06 05:51:05;;;;;;;13.25;11.90;;;17.80;99.90;;;;;;5018405;27;90462;-33
2022/09/06 05:53:35;;;;;;;;;;;17.80;99.90;;;;;;5010845;28;89660;-34
2022/09/06 05:56:01;;;;;;;12.70;11.50;;;17.70;99.90;;;;;;5020367;28;89502;-33
2022/09/06 05:58:27;;;;;;;15.65;14.00;;;17.70;99.90;;;;;;5016253;28;91260;-35
2022/09/06 06:01:03;;;;;;;13.88;12.68;;;17.70;99.90;;;;;;5016908;28;89612;-30
2022/09/06 06:03:29;;;;;;;17.10;12.55;;;17.70;99.90;;;;;;5017582;27;90157;-31
2022/09/06 06:05:54;;;;;;;13.95;12.13;;;17.60;99.90;;;;;;5017535;27;90148;-31
2022/09/06 06:08:20;;;;;;;14.88;13.35;;;17.70;99.90;;;;;;5018156;28;90542;-31
2022/09/06 06:10:45;;;;;;;13.70;12.38;;;17.60;99.90;;;;;;5017429;27;89804;-34
2022/09/06 06:13:11;;;;;;;15.15;13.65;;;17.60;99.90;;;;;;5017948;28;89318;-31
2022/09/06 06:15:36;;;;;;;13.55;11.98;;;17.60;99.90;;;;;;5017732;27;93306;-32
2022/09/06 06:18:02;;;;;;;15.43;12.50;;;17.60;99.90;;;;;;5017785;27;90303;-31
2022/09/06 06:20:28;;;;;;;14.07;12.88;;;17.60;99.90;;;;;;5018340;28;88818;-34
2022/09/06 06:22:53;;;;;;;15.25;13.90;;;17.60;99.90;;;;;;5017997;27;89420;-31
2022/09/06 06:25:21;;;;;;;16.60;14.93;;;17.60;99.90;;;;;;5018336;28;90135;-33
2022/09/06 06:27:47;;;;;;;15.02;13.43;;;17.60;99.90;;;;;;5019059;27;89974;-35
2022/09/06 06:30:14;;;;;;;16.00;14.35;;;17.60;99.90;;;;;;5017609;28;89634;-35
2022/09/06 06:32:39;;;;;;;15.18;13.85;;;17.60;99.90;;;;;;5018585;28;89213;-35
2022/09/06 06:35:05;;;;;;;16.50;15.00;;;17.60;99.90;;;;;;5015129;28;90201;-32
2022/09/06 06:37:32;;;;;;;21.92;14.20;;;17.50;99.90;;;;;;5016666;28;90947;-30
2022/09/06 06:39:57;;;;;;;14.40;13.00;;;17.60;99.90;;;;;;5017841;28;90075;-32
2022/09/06 06:42:23;;;;;;;16.98;15.48;;;17.60;99.90;;;;;;5017284;28;89748;-32
2022/09/06 06:44:51;;;;;;;17.67;15.88;;;17.60;99.90;;;;;;5017945;28;90139;-36
2022/09/06 06:47:17;;;;;;;17.08;15.38;;;17.60;99.90;;;;;;5018353;27;90425;-32
2022/09/06 06:49:43;;;;;;;16.20;14.57;;;17.70;99.90;;;;;;5017757;28;90108;-31
2022/09/06 06:52:09;;;;;;;15.65;14.18;;;17.60;99.90;;;;;;5017690;27;89030;-33
2022/09/06 06:54:36;;;;;;;18.85;17.05;;;17.70;99.90;;;;;;5016531;28;90115;-30
2022/09/06 06:57:04;;;;;;;17.77;16.17;;;17.70;99.90;;;;;;5017619;27;89774;-32
2022/09/06 06:59:30;;;;;;;18.50;16.80;;;17.80;99.90;;;;;;5017930;28;89010;-31
2022/09/06 07:01:56;;;;;;;18.10;15.07;;;17.80;99.90;;;;;;5017432;28;90392;-34
2022/09/06 07:04:21;;;;;;;17.95;15.68;;;17.90;99.90;;;;;;5016865;27;90362;-35
2022/09/06 07:06:52;;;;;;;18.15;16.48;;;18.00;99.90;;;;;;5017569;28;90729;-34
2022/09/06 07:09:19;;;;;;;17.15;15.45;;;18.00;99.90;;;;;;5017760;27;90580;-34
2022/09/06 07:11:47;;;;;;;18.73;16.92;;;18.10;99.90;;;;;;5018037;27;90052;-32
2022/09/06 07:14:12;;;;;;;;;;;18.10;99.90;;;;;;5017991;27;89839;-32
2022/09/06 07:16:38;;;;;;;18.42;16.58;;;18.10;99.90;;;;;;5021166;28;89620;-30
2022/09/06 07:19:04;;;;;;;18.77;16.92;;;18.10;99.90;;;;;;5021130;28;89527;-32
2022/09/06 07:21:29;;;;;;;18.83;17.13;;;18.20;99.90;;;;;;5020562;28;87573;-31
2022/09/06 07:23:55;;;;;;;17.85;16.23;;;18.20;99.90;;;;;;5021644;28;90236;-30
2022/09/06 07:26:27;;;;;;;18.20;16.27;;;18.20;99.90;;;;;;5020342;28;90551;-35
2022/09/06 07:28:58;;;;;;;20.10;18.10;;;18.30;99.90;;;;;;5021109;27;90539;-31
2022/09/06 07:31:25;;;;;;;19.60;17.70;;;18.40;99.90;;;;;;5019921;28;87991;-35
2022/09/06 07:33:51;;;;;;;16.85;15.25;;;18.50;99.90;;;;;;5020739;27;90651;-32
2022/09/06 07:36:17;;;;;;;22.38;18.40;;;18.50;99.90;;;;;;5020012;27;88974;-30
2022/09/06 07:38:48;;;;;;;19.30;16.77;;;18.50;99.90;;;;;;5020506;28;90244;-31
2022/09/06 07:41:13;;;;;;;20.08;18.25;;;18.60;99.90;;;;;;5020467;28;89616;-36
2022/09/06 07:43:39;;;;;;;18.17;16.35;;;18.70;99.90;;;;;;5021049;28;90314;-32
2022/09/06 07:46:10;;;;;;;21.70;19.60;;;18.70;99.90;;;;;;5020185;28;89852;-35
2022/09/06 07:48:38;;;;;;;20.67;18.67;;;18.70;99.90;;;;;;5020223;28;89663;-31
2022/09/06 07:51:06;;;;;;;20.10;17.98;;;18.70;99.90;;;;;;5020296;27;89626;-32
2022/09/06 07:53:32;;;;;;;20.67;18.00;;;18.80;99.90;;;;;;5020322;28;89299;-32
2022/09/06 07:55:59;;;;;;;20.38;18.48;;;18.70;99.90;;;;;;5020487;27;89698;-34
2022/09/06 07:58:25;;;;;;;23.13;20.80;;;18.70;99.90;;;;;;5020013;27;89833;-34
2022/09/06 08:00:51;;;;;;;19.77;17.67;;;18.70;99.90;;;;;;5020911;27;89685;-35
2022/09/06 08:03:17;;;;;;;20.17;18.10;;;18.70;99.90;;;;;;5019710;28;90550;-31
2022/09/06 08:05:42;;;;;;;21.20;19.10;;;18.80;99.90;;;;;;5020231;28;89475;-32
2022/09/06 08:08:08;;;;;;;18.88;17.08;;;19.00;99.90;;;;;;5020070;28;89195;-32
2022/09/06 08:10:33;;;;;;;22.17;18.95;;;19.20;99.90;;;;;;5019812;28;88238;-32
2022/09/06 08:12:59;;;;;;;19.25;17.35;;;19.50;99.90;;;;;;5019993;28;90405;-32
2022/09/06 08:15:24;;;;;;;17.90;16.13;;;19.70;99.90;;;;;;5019164;28;91882;-32
2022/09/06 08:17:51;;;;;;;21.08;17.25;;;20.10;99.90;;;;;;5020085;27;90423;-32
2022/09/06 08:20:17;;;;;;;19.63;17.73;;;20.40;99.90;;;;;;5019236;27;88275;-33
2022/09/06 08:22:43;;;;;;;19.55;16.48;;;20.70;99.90;;;;;;5019084;28;90473;-32
2022/09/06 08:25:09;;;;;;;20.50;18.35;;;20.90;99.90;;;;;;5020221;28;89935;-32
2022/09/06 08:27:35;;;;;;;16.58;15.02;;;21.00;99.90;;;;;;5019343;27;89363;-34
2022/09/06 08:30:00;;;;;;;20.27;17.90;;;21.20;99.90;;;;;;5019494;27;87838;-32
2022/09/06 08:32:26;;;;;;;17.52;15.93;;;21.20;99.90;;;;;;5019194;28;90382;-32
2022/09/06 08:34:51;;;;;;;17.70;15.40;;;21.20;99.90;;;;;;5018017;28;89795;-34
2022/09/06 08:37:17;;;;;;;20.23;15.98;;;21.30;99.90;;;;;;5020135;28;89936;-31
2022/09/06 08:39:42;;;;;;;17.70;14.88;;;21.40;99.90;;;;;;5019455;28;88858;-32
2022/09/06 08:42:11;;;;;;;16.90;15.05;;;21.60;99.90;;;;;;5018791;28;89730;-34
2022/09/06 08:44:43;;;;;;;17.20;15.45;;;21.70;99.90;;;;;;5019031;27;90204;-31
2022/09/06 08:47:11;;;;;;;18.17;16.38;;;21.90;99.90;;;;;;5019747;28;88972;-32
2022/09/06 08:49:45;;;;;;;16.58;15.07;;;22.10;99.90;;;;;;5020095;27;88977;-33
2022/09/06 08:52:23;;;;;;;17.15;15.40;;;22.30;99.90;;;;;;5019402;27;90110;-32
2022/09/06 08:54:54;;;;;;;17.33;15.70;;;22.40;99.90;;;;;;5018057;28;91110;-31
2022/09/06 08:57:58;;;;;;;18.65;15.98;;;22.30;99.90;;;;;;5018653;28;89128;-32
2022/09/06 09:00:24;;;;;;;16.25;14.65;;;22.30;99.90;;;;;;5019191;27;89333;-32
2022/09/06 09:03:02;;;;;;;18.98;17.27;;;22.10;99.90;;;;;;5019931;28;90749;-31
2022/09/06 09:05:31;;;;;;;17.30;15.75;;;22.10;99.90;;;;;;5006058;28;90536;-34
2022/09/06 09:08:28;;;;;;;17.88;16.08;;;22.20;99.90;;;;;;5018252;27;90565;-32
2022/09/06 09:11:06;;;;;;;18.90;16.97;;;22.40;99.90;;;;;;5009047;28;87715;-31
2022/09/06 09:13:52;;;;;;;18.35;16.23;;;22.60;99.90;;;;;;5017999;27;90116;-33
2022/09/06 09:16:18;;;;;;;18.08;16.13;;;22.70;99.90;;;;;;5019342;27;90051;-32
2022/09/06 09:19:04;;;;;;;19.17;17.20;;;22.70;99.90;;;;;;5018521;27;88488;-34
2022/09/06 09:21:33;;;;;;;19.20;17.20;;;22.80;99.90;;;;;;5018377;27;88526;-33
2022/09/06 09:24:04;;;;;;;20.83;17.40;;;22.90;99.90;;;;;;5017159;28;90324;-30
2022/09/06 09:27:12;;;;;;;16.92;15.27;;;23.00;99.90;;;;;;5019540;27;90321;-32
2022/09/06 09:29:53;;;;;;;19.40;15.60;;;23.10;99.90;;;;;;4927762;28;89579;-31
2022/09/06 09:32:40;;;;;;;15.02;13.55;;;23.40;99.90;;;;;;5010785;27;89700;-33
2022/09/06 09:35:27;;;;;;;18.38;16.55;;;23.60;99.90;;;;;;5017136;28;90105;-32
2022/09/06 09:38:05;;;;;;;20.38;17.25;;;23.80;99.90;;;;;;5006673;27;89840;-34
2022/09/06 09:40:41;;;;;;;16.40;14.50;;;23.80;99.90;;;;;;5017641;27;92269;-33
2022/09/06 09:43:15;;;;;;;15.45;13.88;;;23.80;99.90;;;;;;5018263;27;89539;-36
2022/09/06 09:45:42;;;;;;;17.90;16.30;;;23.80;99.90;;;;;;5018965;28;90262;-32
2022/09/06 09:48:23;;;;;;;15.45;14.13;;;24.00;99.90;;;;;;5018442;28;89393;-35
2022/09/06 09:50:49;;;;;;;14.27;12.82;;;24.10;99.90;;;;;;5018844;27;90369;-31
2022/09/06 09:53:18;;;;;;;18.40;15.00;;;24.20;99.90;;;;;;5018548;28;90746;-36
2022/09/06 09:55:44;;;;;;;15.18;13.63;;;24.40;99.90;;;;;;5017607;27;89394;-35
2022/09/06 09:58:28;;;;;;;12.38;11.10;;;24.60;99.90;;;;;;5017331;27;89554;-34
2022/09/06 10:01:32;;;;;;;13.50;12.18;;;24.80;99.90;;;;;;5018016;27;90399;-33
2022/09/06 10:04:11;;;;;;;15.10;13.57;;;24.90;99.90;;;;;;5007737;28;88414;-34
2022/09/06 10:06:37;;;;;;;15.55;13.52;;;25.10;99.90;;;;;;5018251;28;90940;-34
2022/09/06 10:09:35;;;;;;;15.07;13.70;;;25.10;99.90;;;;;;5017964;28;89088;-31
2022/09/06 10:12:00;;;;;;;15.95;13.10;;;25.00;99.90;;;;;;4990848;28;90206;-32
2022/09/06 10:14:38;;;;;;;13.18;11.95;;;25.00;99.90;;;;;;5018903;27;89427;-35
2022/09/06 10:17:04;;;;;;;17.20;11.35;;;25.10;99.90;;;;;;5018864;27;90847;-35
2022/09/06 10:19:44;;;;;;;12.43;11.30;;;25.10;99.90;;;;;;5019766;27;90358;-32
2022/09/06 10:22:18;;;;;;;11.55;10.35;;;25.20;99.90;;;;;;5018701;28;89840;-31
2022/09/06 10:25:22;;;;;;;12.63;11.35;;;25.30;99.90;;;;;;5017644;27;88944;-32
2022/09/06 10:28:07;;;;;;;12.23;11.02;;;25.50;99.90;;;;;;5018484;28;89525;-35
2022/09/06 10:30:39;;;;;;;13.43;10.65;;;25.60;99.90;;;;;;5017667;28;89601;-34
2022/09/06 10:33:23;;;;;;;15.57;11.27;;;25.50;99.90;;;;;;5018289;27;89532;-32
2022/09/06 10:35:50;;;;;;;12.60;8.52;;;25.50;99.90;;;;;;5016233;28;88402;-33
2022/09/06 10:38:34;;;;;;;16.88;10.52;;;25.50;99.90;;;;;;5018188;27;90345;-36
2022/09/06 10:41:12;;;;;;;9.15;8.32;;;25.60;99.90;;;;;;5001735;28;88605;-33
2022/09/06 10:43:41;;;;;;;;;;;25.70;99.90;;;;;;5018893;28;89278;-35
2022/09/06 10:46:14;;;;;;;11.18;7.32;;;25.80;99.90;;;;;;5019858;27;88970;-32
2022/09/06 10:48:44;;;;;;;8.52;7.72;;;25.80;99.90;;;;;;5018632;27;89954;-34
2022/09/06 10:51:40;;;;;;;9.85;8.70;;;25.80;99.90;;;;;;5020643;27;90532;-33
2022/09/06 10:54:07;;;;;;;9.07;8.38;;;25.90;99.90;;;;;;5021658;27;89012;-34
2022/09/06 10:56:33;;;;;;;;;;;26.00;99.90;;;;;;5022498;27;89707;-33
2022/09/06 10:59:01;;;;;;;7.50;6.72;;;26.00;99.90;;;;;;5023744;28;90737;-31
2022/09/06 11:01:36;;;;;;;8.40;7.60;;;26.00;99.90;;;;;;5022617;28;89679;-34
2022/09/06 11:04:05;;;;;;;8.57;6.32;;;26.10;99.90;;;;;;5021535;27;89559;-33
2022/09/06 11:06:41;;;;;;;5.68;5.20;;;26.20;99.90;;;;;;5021572;28;89330;-31
2022/09/06 11:09:19;;;;;;;5.85;5.38;;;26.30;99.90;;;;;;5022839;28;90360;-35
2022/09/06 11:12:06;;;;;;;6.35;5.85;;;26.50;99.90;;;;;;5022075;28;88629;-34
2022/09/06 11:14:33;;;;;;;;;;;26.50;99.90;;;;;;5021482;27;89264;-35
2022/09/06 11:17:17;;;;;;;6.25;5.78;;;26.50;99.90;;;;;;5022295;27;90786;-33
2022/09/06 11:20:03;;;;;;;6.60;5.68;;;26.50;99.90;;;;;;5021633;27;89397;-32
2022/09/06 11:22:54;;;;;;;6.30;5.70;;;26.60;99.90;;;;;;5009780;28;89879;-35
2022/09/06 11:25:31;;;;;;;6.43;5.82;;;26.60;99.90;;;;;;5021079;28;89531;-35
2022/09/06 11:28:00;;;;;;;6.25;5.75;;;26.60;99.90;;;;;;5020820;28;89750;-31
2022/09/06 11:30:28;;;;;;;10.93;7.53;;;26.70;99.90;;;;;;5021336;27;90371;-33
2022/09/06 11:33:22;;;;;;;8.45;6.53;;;26.70;99.90;;;;;;5021516;27;90813;-33
2022/09/06 11:35:48;;;;;;;7.82;6.97;;;26.80;99.90;;;;;;5019935;28;89325;-33
2022/09/06 11:38:14;;;;;;;8.13;6.13;;;26.80;99.90;;;;;;5022115;27;89119;-35
2022/09/06 11:40:43;;;;;;;4.80;4.40;;;26.80;99.40;;;;;;5021378;27;90589;-35
2022/09/06 11:43:12;;;;;;;6.10;5.57;;;26.80;99.90;;;;;;5019999;27;90556;-34
2022/09/06 11:45:50;;;;;;;5.03;4.53;;;26.80;96.10;;;;;;5020600;28;90518;-35
2022/09/06 11:48:25;;;;;;;5.97;5.47;;;26.90;95.50;;;;;;5020901;27;88016;-32
2022/09/06 11:50:58;;;;;;;6.07;5.57;;;26.80;94.30;;;;;;5021298;27;90553;-35
2022/09/06 11:53:54;;;;;;;5.80;5.13;;;26.70;94.30;;;;;;5020456;27;89479;-35
2022/09/06 11:56:29;;;;;;;5.28;4.88;;;26.70;94.60;;;;;;5020467;28;89580;-33
2022/09/06 11:59:00;;;;;;;5.63;5.22;;;26.80;96.60;;;;;;5021399;27;88823;-34
2022/09/06 12:01:26;;;;;;;5.35;4.95;;;26.70;93.80;;;;;;5021147;27;90857;-31
2022/09/06 12:03:51;;;;;;;5.05;4.65;;;26.80;93.20;;;;;;5020224;28;89555;-33
2022/09/06 12:06:37;;;;;;;5.93;4.85;;;26.80;93.70;;;;;;5021019;28;90874;-33
2022/09/06 12:09:26;;;;;;;6.68;5.05;;;26.90;92.10;;;;;;5020410;28;90057;-34
2022/09/06 12:11:52;;;;;;;5.00;4.50;;;27.00;90.80;;;;;;5020726;27;89195;-34
2022/09/06 12:14:40;;;;;;;6.50;4.93;;;26.90;92.00;;;;;;5019874;27;89296;-33
2022/09/06 12:17:06;;;;;;;6.57;5.15;;;27.00;88.50;;;;;;5020205;27;89443;-32
2022/09/06 12:19:54;;;;;;;4.97;4.55;;;27.00;87.90;;;;;;5021623;27;88929;-35
2022/09/06 12:22:25;;;;;;;;;;;27.00;88.40;;;;;;5020871;27;90638;-36
2022/09/06 12:24:54;;;;;;;7.68;5.28;;;26.90;90.10;;;;;;5022219;28;89698;-33
2022/09/06 12:27:25;;;;;;;4.40;3.88;;;26.90;93.50;;;;;;5020608;27;89727;-35
2022/09/06 12:29:58;;;;;;;4.97;4.47;;;27.00;86.70;;;;;;5021367;27;89104;-34
2022/09/06 12:32:33;;;;;;;5.00;4.40;;;27.10;91.60;;;;;;5019894;28;91600;-32
2022/09/06 12:35:00;;;;;;;5.93;5.32;;;27.20;90.90;;;;;;5056469;22;90948;-30
2022/09/06 12:37:52;;;;;;;4.97;4.57;;;27.30;84.20;;;;;;5020346;27;90478;-33
2022/09/06 12:40:19;;;;;;;9.02;5.70;;;27.30;87.10;;;;;;5020518;27;90167;-36
2022/09/06 12:42:47;;;;;;;5.20;4.70;;;27.40;84.00;;;;;;5020552;27;90159;-34
2022/09/06 12:45:13;;;;;;;;;;;27.40;85.70;;;;;;5021531;27;90072;-32
2022/09/06 12:47:39;;;;;;;4.82;4.43;;;27.40;87.90;;;;;;5021040;27;89206;-33
2022/09/06 12:50:24;;;;;;;7.03;5.53;;;27.30;83.90;;;;;;5019319;28;89599;-35
2022/09/06 12:53:01;;;;;;;5.07;4.55;;;27.40;83.60;;;;;;5012109;28;90292;-34
2022/09/06 12:55:31;;;;;;;5.20;4.90;;;27.30;86.10;;;;;;5018752;27;90033;-31